sensor_id;sensor_type;location;lat;lon;timestamp;P1;durP1;ratioP1;P2;durP2;ratioP2
14143;SDS011;7152;48.348;10.980;2022-09-27T00:01:59;1.80;;;1.57;;
14143;SDS011;7152;48.348;10.980;2022-09-27T00:04:25;1.63;;;1.53;;
14143;SDS011;7152;48.348;10.980;2022-09-27T00:06:51;1.97;;;1.57;;
14143;SDS011;7152;48.348;10.980;2022-09-27T00:09:17;2.23;;;1.50;;
14143;SDS011;7152;48.348;10.980;2022-09-27T00:11:43;2.60;;;1.80;;
14143;SDS011;7152;48.348;10.980;2022-09-27T00:14:16;1.90;;;1.53;;
14143;SDS011;7152;48.348;10.980;2022-09-27T00:16:42;2.20;;;1.50;;
14143;SDS011;7152;48.348;10.980;2022-09-27T00:19:12;2.03;;;1.70;;
14143;SDS011;7152;48.348;10.980;2022-09-27T00:21:40;1.70;;;1.60;;
14143;SDS011;7152;48.348;10.980;2022-09-27T00:24:10;1.77;;;1.47;;
14143;SDS011;7152;48.348;10.980;2022-09-27T00:26:37;1.90;;;1.33;;
14143;SDS011;7152;48.348;10.980;2022-09-27T00:29:03;3.10;;;1.67;;
14143;SDS011;7152;48.348;10.980;2022-09-27T00:31:29;2.20;;;1.50;;
14143;SDS011;7152;48.348;10.980;2022-09-27T00:33:56;2.60;;;1.50;;
14143;SDS011;7152;48.348;10.980;2022-09-27T00:36:26;2.47;;;1.70;;
14143;SDS011;7152;48.348;10.980;2022-09-27T00:38:53;1.50;;;1.40;;
14143;SDS011;7152;48.348;10.980;2022-09-27T00:41:30;1.97;;;1.43;;
14143;SDS011;7152;48.348;10.980;2022-09-27T00:43:59;2.00;;;1.30;;
14143;SDS011;7152;48.348;10.980;2022-09-27T00:46:35;1.43;;;1.33;;
14143;SDS011;7152;48.348;10.980;2022-09-27T00:49:26;1.80;;;1.30;;
14143;SDS011;7152;48.348;10.980;2022-09-27T00:51:58;2.00;;;1.63;;
14143;SDS011;7152;48.348;10.980;2022-09-27T00:54:37;1.53;;;1.43;;
14143;SDS011;7152;48.348;10.980;2022-09-27T00:57:06;2.57;;;1.70;;
14143;SDS011;7152;48.348;10.980;2022-09-27T00:59:34;2.17;;;1.50;;
14143;SDS011;7152;48.348;10.980;2022-09-27T01:02:03;2.30;;;1.70;;
14143;SDS011;7152;48.348;10.980;2022-09-27T01:04:31;4.70;;;1.60;;
14143;SDS011;7152;48.348;10.980;2022-09-27T01:06:58;1.87;;;1.60;;
14143;SDS011;7152;48.348;10.980;2022-09-27T01:09:24;1.70;;;1.37;;
14143;SDS011;7152;48.348;10.980;2022-09-27T01:17:26;3.50;;;2.43;;
14143;SDS011;7152;48.348;10.980;2022-09-27T01:34:41;1.33;;;1.23;;
14143;SDS011;7152;48.348;10.980;2022-09-27T01:37:23;1.60;;;1.50;;
14143;SDS011;7152;48.348;10.980;2022-09-27T01:40:10;1.80;;;1.70;;
14143;SDS011;7152;48.348;10.980;2022-09-27T01:43:03;2.90;;;1.50;;
14143;SDS011;7152;48.348;10.980;2022-09-27T01:45:57;1.30;;;1.10;;
14143;SDS011;7152;48.348;10.980;2022-09-27T01:48:34;1.83;;;1.43;;
14143;SDS011;7152;48.348;10.980;2022-09-27T01:54:01;2.10;;;1.13;;
14143;SDS011;7152;48.348;10.980;2022-09-27T01:56:34;1.40;;;1.30;;
14143;SDS011;7152;48.348;10.980;2022-09-27T01:59:11;1.00;;;0.90;;
14143;SDS011;7152;48.348;10.980;2022-09-27T02:01:42;1.67;;;1.20;;
14143;SDS011;7152;48.348;10.980;2022-09-27T02:04:12;1.77;;;1.03;;
14143;SDS011;7152;48.348;10.980;2022-09-27T02:06:42;2.03;;;1.20;;
14143;SDS011;7152;48.348;10.980;2022-09-27T02:09:13;1.87;;;1.13;;
14143;SDS011;7152;48.348;10.980;2022-09-27T02:11:42;1.30;;;1.20;;
14143;SDS011;7152;48.348;10.980;2022-09-27T02:14:36;1.40;;;1.10;;
14143;SDS011;7152;48.348;10.980;2022-09-27T02:19:59;1.50;;;1.40;;
14143;SDS011;7152;48.348;10.980;2022-09-27T02:25:30;1.40;;;1.30;;
14143;SDS011;7152;48.348;10.980;2022-09-27T02:30:46;1.97;;;1.30;;
14143;SDS011;7152;48.348;10.980;2022-09-27T02:33:12;2.40;;;1.30;;
14143;SDS011;7152;48.348;10.980;2022-09-27T02:35:38;1.47;;;1.30;;
14143;SDS011;7152;48.348;10.980;2022-09-27T02:38:04;2.77;;;1.30;;
14143;SDS011;7152;48.348;10.980;2022-09-27T02:40:35;2.23;;;1.60;;
14143;SDS011;7152;48.348;10.980;2022-09-27T02:43:07;2.13;;;1.80;;
14143;SDS011;7152;48.348;10.980;2022-09-27T02:45:36;1.90;;;1.67;;
14143;SDS011;7152;48.348;10.980;2022-09-27T02:48:18;1.40;;;1.30;;
14143;SDS011;7152;48.348;10.980;2022-09-27T03:05:50;2.27;;;2.07;;
14143;SDS011;7152;48.348;10.980;2022-09-27T03:08:25;4.97;;;2.17;;
14143;SDS011;7152;48.348;10.980;2022-09-27T03:10:51;2.93;;;1.93;;
14143;SDS011;7152;48.348;10.980;2022-09-27T03:13:17;2.20;;;1.53;;
14143;SDS011;7152;48.348;10.980;2022-09-27T03:15:43;1.93;;;1.73;;
14143;SDS011;7152;48.348;10.980;2022-09-27T03:18:08;1.97;;;1.87;;
14143;SDS011;7152;48.348;10.980;2022-09-27T03:20:34;3.23;;;2.30;;
14143;SDS011;7152;48.348;10.980;2022-09-27T03:23:00;2.10;;;2.00;;
14143;SDS011;7152;48.348;10.980;2022-09-27T03:25:25;2.50;;;2.30;;
14143;SDS011;7152;48.348;10.980;2022-09-27T03:27:51;2.00;;;1.90;;
14143;SDS011;7152;48.348;10.980;2022-09-27T03:30:17;2.57;;;1.83;;
14143;SDS011;7152;48.348;10.980;2022-09-27T03:32:43;1.80;;;1.70;;
14143;SDS011;7152;48.348;10.980;2022-09-27T03:35:09;2.23;;;2.03;;
14143;SDS011;7152;48.348;10.980;2022-09-27T03:37:36;2.30;;;1.90;;
14143;SDS011;7152;48.348;10.980;2022-09-27T03:40:02;2.53;;;1.90;;
14143;SDS011;7152;48.348;10.980;2022-09-27T03:42:28;2.40;;;2.20;;
14143;SDS011;7152;48.348;10.980;2022-09-27T03:44:54;2.13;;;1.90;;
14143;SDS011;7152;48.348;10.980;2022-09-27T03:47:20;1.87;;;1.77;;
14143;SDS011;7152;48.348;10.980;2022-09-27T03:49:46;5.37;;;2.20;;
14143;SDS011;7152;48.348;10.980;2022-09-27T03:52:13;1.83;;;1.70;;
14143;SDS011;7152;48.348;10.980;2022-09-27T03:54:39;3.20;;;2.00;;
14143;SDS011;7152;48.348;10.980;2022-09-27T03:57:05;2.27;;;2.00;;
14143;SDS011;7152;48.348;10.980;2022-09-27T03:59:30;3.50;;;1.90;;
14143;SDS011;7152;48.348;10.980;2022-09-27T04:01:56;2.23;;;2.03;;
14143;SDS011;7152;48.348;10.980;2022-09-27T04:04:21;2.13;;;2.00;;
14143;SDS011;7152;48.348;10.980;2022-09-27T04:06:47;1.83;;;1.60;;
14143;SDS011;7152;48.348;10.980;2022-09-27T04:09:13;2.33;;;1.90;;
14143;SDS011;7152;48.348;10.980;2022-09-27T04:11:39;1.70;;;1.60;;
14143;SDS011;7152;48.348;10.980;2022-09-27T04:14:05;2.00;;;1.80;;
14143;SDS011;7152;48.348;10.980;2022-09-27T04:16:32;2.10;;;1.60;;
14143;SDS011;7152;48.348;10.980;2022-09-27T04:18:59;3.50;;;1.80;;
14143;SDS011;7152;48.348;10.980;2022-09-27T04:21:26;2.00;;;1.50;;
14143;SDS011;7152;48.348;10.980;2022-09-27T04:23:52;1.60;;;1.50;;
14143;SDS011;7152;48.348;10.980;2022-09-27T04:26:18;1.83;;;1.73;;
14143;SDS011;7152;48.348;10.980;2022-09-27T04:28:45;1.43;;;1.33;;
14143;SDS011;7152;48.348;10.980;2022-09-27T04:31:10;1.30;;;1.20;;
14143;SDS011;7152;48.348;10.980;2022-09-27T04:33:36;1.30;;;1.20;;
14143;SDS011;7152;48.348;10.980;2022-09-27T04:36:02;3.20;;;1.30;;
14143;SDS011;7152;48.348;10.980;2022-09-27T04:38:46;1.57;;;1.47;;
14143;SDS011;7152;48.348;10.980;2022-09-27T04:41:12;1.73;;;1.20;;
14143;SDS011;7152;48.348;10.980;2022-09-27T04:43:38;1.40;;;1.30;;
14143;SDS011;7152;48.348;10.980;2022-09-27T04:46:04;1.80;;;1.30;;
14143;SDS011;7152;48.348;10.980;2022-09-27T04:48:30;1.40;;;1.30;;
14143;SDS011;7152;48.348;10.980;2022-09-27T04:50:59;1.03;;;1.03;;
14143;SDS011;7152;48.348;10.980;2022-09-27T04:53:28;1.30;;;1.20;;
14143;SDS011;7152;48.348;10.980;2022-09-27T04:55:55;1.20;;;1.10;;
14143;SDS011;7152;48.348;10.980;2022-09-27T04:58:21;2.03;;;1.00;;
14143;SDS011;7152;48.348;10.980;2022-09-27T05:00:47;1.53;;;0.97;;
14143;SDS011;7152;48.348;10.980;2022-09-27T05:03:16;2.30;;;0.97;;
14143;SDS011;7152;48.348;10.980;2022-09-27T05:05:43;1.47;;;0.80;;
14143;SDS011;7152;48.348;10.980;2022-09-27T05:08:09;1.63;;;1.00;;
14143;SDS011;7152;48.348;10.980;2022-09-27T05:10:35;1.13;;;1.00;;
14143;SDS011;7152;48.348;10.980;2022-09-27T05:13:01;0.83;;;0.83;;
14143;SDS011;7152;48.348;10.980;2022-09-27T05:15:26;1.00;;;0.90;;
14143;SDS011;7152;48.348;10.980;2022-09-27T05:17:52;0.80;;;0.67;;
14143;SDS011;7152;48.348;10.980;2022-09-27T05:20:18;1.07;;;0.73;;
14143;SDS011;7152;48.348;10.980;2022-09-27T05:22:44;1.03;;;0.87;;
14143;SDS011;7152;48.348;10.980;2022-09-27T05:25:12;1.13;;;0.80;;
14143;SDS011;7152;48.348;10.980;2022-09-27T05:27:38;1.43;;;0.70;;
14143;SDS011;7152;48.348;10.980;2022-09-27T05:30:04;1.37;;;0.87;;
14143;SDS011;7152;48.348;10.980;2022-09-27T05:32:32;1.10;;;1.00;;
14143;SDS011;7152;48.348;10.980;2022-09-27T05:34:58;1.17;;;0.80;;
14143;SDS011;7152;48.348;10.980;2022-09-27T05:37:24;0.93;;;0.87;;
14143;SDS011;7152;48.348;10.980;2022-09-27T05:39:50;0.80;;;0.80;;
14143;SDS011;7152;48.348;10.980;2022-09-27T05:42:16;0.90;;;0.77;;
14143;SDS011;7152;48.348;10.980;2022-09-27T05:44:45;0.80;;;0.80;;
14143;SDS011;7152;48.348;10.980;2022-09-27T05:47:11;0.87;;;0.80;;
14143;SDS011;7152;48.348;10.980;2022-09-27T05:49:38;2.40;;;1.00;;
14143;SDS011;7152;48.348;10.980;2022-09-27T05:52:04;1.27;;;1.13;;
14143;SDS011;7152;48.348;10.980;2022-09-27T05:54:31;1.90;;;1.00;;
14143;SDS011;7152;48.348;10.980;2022-09-27T05:56:57;2.00;;;0.90;;
14143;SDS011;7152;48.348;10.980;2022-09-27T05:59:23;1.57;;;1.20;;
14143;SDS011;7152;48.348;10.980;2022-09-27T06:01:53;2.33;;;1.70;;
14143;SDS011;7152;48.348;10.980;2022-09-27T06:04:19;1.80;;;1.00;;
14143;SDS011;7152;48.348;10.980;2022-09-27T06:06:45;1.73;;;1.20;;
14143;SDS011;7152;48.348;10.980;2022-09-27T06:09:12;1.10;;;0.90;;
14143;SDS011;7152;48.348;10.980;2022-09-27T06:11:39;1.90;;;1.17;;
14143;SDS011;7152;48.348;10.980;2022-09-27T06:14:09;2.63;;;1.00;;
14143;SDS011;7152;48.348;10.980;2022-09-27T06:16:36;2.07;;;1.20;;
14143;SDS011;7152;48.348;10.980;2022-09-27T06:19:02;1.73;;;1.20;;
14143;SDS011;7152;48.348;10.980;2022-09-27T06:21:28;1.97;;;1.20;;
14143;SDS011;7152;48.348;10.980;2022-09-27T06:23:56;1.00;;;1.00;;
14143;SDS011;7152;48.348;10.980;2022-09-27T06:26:23;2.00;;;1.43;;
14143;SDS011;7152;48.348;10.980;2022-09-27T06:28:51;2.40;;;1.20;;
14143;SDS011;7152;48.348;10.980;2022-09-27T06:31:17;1.77;;;1.10;;
14143;SDS011;7152;48.348;10.980;2022-09-27T06:33:42;2.20;;;1.10;;
14143;SDS011;7152;48.348;10.980;2022-09-27T06:36:09;2.83;;;1.13;;
14143;SDS011;7152;48.348;10.980;2022-09-27T06:38:34;2.10;;;1.10;;
14143;SDS011;7152;48.348;10.980;2022-09-27T06:41:01;1.63;;;1.30;;
14143;SDS011;7152;48.348;10.980;2022-09-27T06:43:27;1.87;;;1.10;;
14143;SDS011;7152;48.348;10.980;2022-09-27T06:45:54;1.70;;;1.13;;
14143;SDS011;7152;48.348;10.980;2022-09-27T06:48:20;1.90;;;1.20;;
14143;SDS011;7152;48.348;10.980;2022-09-27T06:50:46;2.27;;;1.60;;
14143;SDS011;7152;48.348;10.980;2022-09-27T06:53:15;2.57;;;1.27;;
14143;SDS011;7152;48.348;10.980;2022-09-27T06:55:41;1.43;;;1.03;;
14143;SDS011;7152;48.348;10.980;2022-09-27T06:58:10;1.87;;;0.90;;
14143;SDS011;7152;48.348;10.980;2022-09-27T07:00:55;1.97;;;0.97;;
14143;SDS011;7152;48.348;10.980;2022-09-27T07:03:22;1.50;;;1.20;;
14143;SDS011;7152;48.348;10.980;2022-09-27T07:05:56;1.80;;;1.10;;
14143;SDS011;7152;48.348;10.980;2022-09-27T07:08:26;1.40;;;0.90;;
14143;SDS011;7152;48.348;10.980;2022-09-27T07:10:54;2.47;;;1.10;;
14143;SDS011;7152;48.348;10.980;2022-09-27T07:13:21;1.33;;;1.20;;
14143;SDS011;7152;48.348;10.980;2022-09-27T07:15:47;2.83;;;1.40;;
14143;SDS011;7152;48.348;10.980;2022-09-27T07:18:13;2.17;;;0.80;;
14143;SDS011;7152;48.348;10.980;2022-09-27T07:20:39;2.50;;;1.30;;
14143;SDS011;7152;48.348;10.980;2022-09-27T07:23:05;3.23;;;1.10;;
14143;SDS011;7152;48.348;10.980;2022-09-27T07:25:32;3.57;;;1.10;;
14143;SDS011;7152;48.348;10.980;2022-09-27T07:28:02;1.40;;;1.27;;
14143;SDS011;7152;48.348;10.980;2022-09-27T07:30:30;1.30;;;0.90;;
14143;SDS011;7152;48.348;10.980;2022-09-27T07:32:57;3.03;;;1.30;;
14143;SDS011;7152;48.348;10.980;2022-09-27T07:35:24;2.00;;;1.10;;
14143;SDS011;7152;48.348;10.980;2022-09-27T07:37:50;2.63;;;0.90;;
14143;SDS011;7152;48.348;10.980;2022-09-27T07:40:16;2.00;;;0.80;;
14143;SDS011;7152;48.348;10.980;2022-09-27T07:42:42;2.30;;;1.00;;
14143;SDS011;7152;48.348;10.980;2022-09-27T07:45:08;1.13;;;0.97;;
14143;SDS011;7152;48.348;10.980;2022-09-27T07:47:36;2.60;;;1.00;;
14143;SDS011;7152;48.348;10.980;2022-09-27T07:50:07;2.10;;;1.10;;
14143;SDS011;7152;48.348;10.980;2022-09-27T07:52:40;1.47;;;1.00;;
14143;SDS011;7152;48.348;10.980;2022-09-27T07:55:07;2.80;;;0.97;;
14143;SDS011;7152;48.348;10.980;2022-09-27T07:57:35;1.37;;;0.70;;
14143;SDS011;7152;48.348;10.980;2022-09-27T08:00:02;0.80;;;0.70;;
14143;SDS011;7152;48.348;10.980;2022-09-27T08:02:29;0.77;;;0.70;;
14143;SDS011;7152;48.348;10.980;2022-09-27T08:04:56;1.17;;;0.70;;
14143;SDS011;7152;48.348;10.980;2022-09-27T08:07:26;0.80;;;0.60;;
14143;SDS011;7152;48.348;10.980;2022-09-27T08:09:52;1.30;;;0.70;;
14143;SDS011;7152;48.348;10.980;2022-09-27T08:12:18;1.00;;;0.90;;
14143;SDS011;7152;48.348;10.980;2022-09-27T08:14:47;1.30;;;0.90;;
14143;SDS011;7152;48.348;10.980;2022-09-27T08:17:13;1.00;;;0.90;;
14143;SDS011;7152;48.348;10.980;2022-09-27T08:19:40;3.97;;;0.93;;
14143;SDS011;7152;48.348;10.980;2022-09-27T08:22:06;2.00;;;1.10;;
14143;SDS011;7152;48.348;10.980;2022-09-27T08:24:32;1.40;;;0.93;;
14143;SDS011;7152;48.348;10.980;2022-09-27T08:26:58;2.50;;;1.30;;
14143;SDS011;7152;48.348;10.980;2022-09-27T08:29:25;2.00;;;0.97;;
14143;SDS011;7152;48.348;10.980;2022-09-27T08:31:51;1.37;;;0.80;;
14143;SDS011;7152;48.348;10.980;2022-09-27T08:34:18;1.90;;;0.80;;
14143;SDS011;7152;48.348;10.980;2022-09-27T08:36:45;1.33;;;0.70;;
14143;SDS011;7152;48.348;10.980;2022-09-27T08:39:11;1.67;;;0.70;;
14143;SDS011;7152;48.348;10.980;2022-09-27T08:41:50;1.80;;;0.60;;
14143;SDS011;7152;48.348;10.980;2022-09-27T08:44:22;1.60;;;0.73;;
14143;SDS011;7152;48.348;10.980;2022-09-27T08:53:04;0.50;;;0.40;;
14143;SDS011;7152;48.348;10.980;2022-09-27T08:55:44;1.57;;;0.57;;
14143;SDS011;7152;48.348;10.980;2022-09-27T08:58:26;1.53;;;0.83;;
14143;SDS011;7152;48.348;10.980;2022-09-27T09:01:11;1.00;;;0.80;;
14143;SDS011;7152;48.348;10.980;2022-09-27T09:03:44;0.93;;;0.67;;
14143;SDS011;7152;48.348;10.980;2022-09-27T09:09:12;0.80;;;0.50;;
14143;SDS011;7152;48.348;10.980;2022-09-27T09:17:33;0.40;;;0.40;;
14143;SDS011;7152;48.348;10.980;2022-09-27T09:28:45;2.90;;;0.57;;
14143;SDS011;7152;48.348;10.980;2022-09-27T09:33:56;0.97;;;0.40;;
14143;SDS011;7152;48.348;10.980;2022-09-27T09:36:59;0.60;;;0.60;;
14143;SDS011;7152;48.348;10.980;2022-09-27T09:39:40;0.40;;;0.40;;
14143;SDS011;7152;48.348;10.980;2022-09-27T09:45:27;0.67;;;0.50;;
14143;SDS011;7152;48.348;10.980;2022-09-27T09:50:52;0.37;;;0.37;;
14143;SDS011;7152;48.348;10.980;2022-09-27T09:53:43;0.30;;;0.30;;
14143;SDS011;7152;48.348;10.980;2022-09-27T09:58:45;1.07;;;0.50;;
14143;SDS011;7152;48.348;10.980;2022-09-27T10:02:02;0.37;;;0.37;;
14143;SDS011;7152;48.348;10.980;2022-09-27T10:04:14;0.40;;;0.30;;
14143;SDS011;7152;48.348;10.980;2022-09-27T10:06:45;0.67;;;0.40;;
14143;SDS011;7152;48.348;10.980;2022-09-27T10:09:12;0.93;;;0.40;;
14143;SDS011;7152;48.348;10.980;2022-09-27T10:11:41;1.50;;;0.60;;
14143;SDS011;7152;48.348;10.980;2022-09-27T10:14:09;0.63;;;0.57;;
14143;SDS011;7152;48.348;10.980;2022-09-27T10:16:37;0.50;;;0.43;;
14143;SDS011;7152;48.348;10.980;2022-09-27T10:19:06;0.90;;;0.53;;
14143;SDS011;7152;48.348;10.980;2022-09-27T10:21:33;0.90;;;0.50;;
14143;SDS011;7152;48.348;10.980;2022-09-27T10:24:09;0.50;;;0.50;;
14143;SDS011;7152;48.348;10.980;2022-09-27T10:26:38;0.40;;;0.40;;
14143;SDS011;7152;48.348;10.980;2022-09-27T10:29:21;0.87;;;0.47;;
14143;SDS011;7152;48.348;10.980;2022-09-27T10:31:49;0.30;;;0.30;;
14143;SDS011;7152;48.348;10.980;2022-09-27T10:34:17;0.50;;;0.43;;
14143;SDS011;7152;48.348;10.980;2022-09-27T10:37:04;0.30;;;0.30;;
14143;SDS011;7152;48.348;10.980;2022-09-27T10:39:29;1.63;;;0.40;;
14143;SDS011;7152;48.348;10.980;2022-09-27T10:41:55;1.43;;;0.50;;
14143;SDS011;7152;48.348;10.980;2022-09-27T10:46:54;0.60;;;0.40;;
14143;SDS011;7152;48.348;10.980;2022-09-27T10:49:28;1.10;;;0.53;;
14143;SDS011;7152;48.348;10.980;2022-09-27T10:51:55;0.40;;;0.40;;
14143;SDS011;7152;48.348;10.980;2022-09-27T10:56:58;0.43;;;0.43;;
14143;SDS011;7152;48.348;10.980;2022-09-27T10:59:28;3.10;;;0.60;;
14143;SDS011;7152;48.348;10.980;2022-09-27T11:01:57;0.37;;;0.30;;
14143;SDS011;7152;48.348;10.980;2022-09-27T11:04:31;0.67;;;0.40;;
14143;SDS011;7152;48.348;10.980;2022-09-27T11:09:48;0.57;;;0.40;;
14143;SDS011;7152;48.348;10.980;2022-09-27T11:12:18;0.97;;;0.73;;
14143;SDS011;7152;48.348;10.980;2022-09-27T11:15:05;1.03;;;0.60;;
14143;SDS011;7152;48.348;10.980;2022-09-27T11:20:34;0.50;;;0.50;;
14143;SDS011;7152;48.348;10.980;2022-09-27T11:23:27;0.70;;;0.70;;
14143;SDS011;7152;48.348;10.980;2022-09-27T11:32:01;3.27;;;0.47;;
14143;SDS011;7152;48.348;10.980;2022-09-27T11:34:58;0.60;;;0.60;;
14143;SDS011;7152;48.348;10.980;2022-09-27T11:38:15;0.57;;;0.50;;
14143;SDS011;7152;48.348;10.980;2022-09-27T11:51:55;1.03;;;0.53;;
14143;SDS011;7152;48.348;10.980;2022-09-27T12:11:36;0.60;;;0.60;;
14143;SDS011;7152;48.348;10.980;2022-09-27T12:16:41;1.17;;;0.60;;
14143;SDS011;7152;48.348;10.980;2022-09-27T12:19:11;0.80;;;0.80;;
14143;SDS011;7152;48.348;10.980;2022-09-27T12:21:42;0.93;;;0.70;;
14143;SDS011;7152;48.348;10.980;2022-09-27T12:24:14;0.90;;;0.70;;
14143;SDS011;7152;48.348;10.980;2022-09-27T12:26:44;0.70;;;0.70;;
14143;SDS011;7152;48.348;10.980;2022-09-27T12:29:17;0.77;;;0.77;;
14143;SDS011;7152;48.348;10.980;2022-09-27T12:32:10;1.20;;;0.80;;
14143;SDS011;7152;48.348;10.980;2022-09-27T12:37:20;0.80;;;0.80;;
14143;SDS011;7152;48.348;10.980;2022-09-27T12:42:44;1.83;;;0.60;;
14143;SDS011;7152;48.348;10.980;2022-09-27T12:45:17;1.43;;;0.70;;
14143;SDS011;7152;48.348;10.980;2022-09-27T12:48:04;1.70;;;0.73;;
14143;SDS011;7152;48.348;10.980;2022-09-27T12:50:41;1.30;;;0.70;;
14143;SDS011;7152;48.348;10.980;2022-09-27T12:53:16;1.00;;;0.60;;
14143;SDS011;7152;48.348;10.980;2022-09-27T12:58:53;1.47;;;0.70;;
14143;SDS011;7152;48.348;10.980;2022-09-27T13:01:53;0.60;;;0.53;;
14143;SDS011;7152;48.348;10.980;2022-09-27T13:04:44;0.67;;;0.47;;
14143;SDS011;7152;48.348;10.980;2022-09-27T13:07:29;0.43;;;0.40;;
14143;SDS011;7152;48.348;10.980;2022-09-27T13:10:00;1.10;;;0.70;;
14143;SDS011;7152;48.348;10.980;2022-09-27T13:12:53;1.17;;;0.40;;
14143;SDS011;7152;48.348;10.980;2022-09-27T13:15:28;1.17;;;0.30;;
14143;SDS011;7152;48.348;10.980;2022-09-27T13:17:57;0.70;;;0.53;;
14143;SDS011;7152;48.348;10.980;2022-09-27T13:31:07;0.73;;;0.60;;
14143;SDS011;7152;48.348;10.980;2022-09-27T13:33:46;0.97;;;0.50;;
14143;SDS011;7152;48.348;10.980;2022-09-27T13:42:14;1.33;;;0.43;;
14143;SDS011;7152;48.348;10.980;2022-09-27T13:44:17;0.47;;;0.47;;
14143;SDS011;7152;48.348;10.980;2022-09-27T13:46:52;1.13;;;0.60;;
14143;SDS011;7152;48.348;10.980;2022-09-27T13:49:35;1.43;;;0.50;;
14143;SDS011;7152;48.348;10.980;2022-09-27T13:52:04;0.40;;;0.40;;
14143;SDS011;7152;48.348;10.980;2022-09-27T13:54:57;0.80;;;0.50;;
14143;SDS011;7152;48.348;10.980;2022-09-27T13:57:39;0.80;;;0.40;;
14143;SDS011;7152;48.348;10.980;2022-09-27T14:00:19;1.13;;;0.40;;
14143;SDS011;7152;48.348;10.980;2022-09-27T14:02:58;2.33;;;0.47;;
14143;SDS011;7152;48.348;10.980;2022-09-27T14:05:39;0.97;;;0.50;;
14143;SDS011;7152;48.348;10.980;2022-09-27T14:08:19;1.33;;;0.50;;
14143;SDS011;7152;48.348;10.980;2022-09-27T14:10:58;0.40;;;0.40;;
14143;SDS011;7152;48.348;10.980;2022-09-27T14:13:26;0.50;;;0.33;;
14143;SDS011;7152;48.348;10.980;2022-09-27T14:15:56;1.27;;;0.43;;
14143;SDS011;7152;48.348;10.980;2022-09-27T14:18:26;1.83;;;0.40;;
14143;SDS011;7152;48.348;10.980;2022-09-27T14:20:55;0.60;;;0.40;;
14143;SDS011;7152;48.348;10.980;2022-09-27T14:23:33;1.13;;;0.40;;
14143;SDS011;7152;48.348;10.980;2022-09-27T14:26:02;0.43;;;0.30;;
14143;SDS011;7152;48.348;10.980;2022-09-27T14:28:28;0.50;;;0.50;;
14143;SDS011;7152;48.348;10.980;2022-09-27T14:33:38;1.63;;;0.43;;
14143;SDS011;7152;48.348;10.980;2022-09-27T14:36:07;0.50;;;0.50;;
14143;SDS011;7152;48.348;10.980;2022-09-27T14:39:22;0.47;;;0.40;;
14143;SDS011;7152;48.348;10.980;2022-09-27T14:41:49;0.57;;;0.33;;
14143;SDS011;7152;48.348;10.980;2022-09-27T14:44:16;1.37;;;0.40;;
14143;SDS011;7152;48.348;10.980;2022-09-27T14:46:44;1.40;;;0.50;;
14143;SDS011;7152;48.348;10.980;2022-09-27T14:49:15;0.97;;;0.57;;
14143;SDS011;7152;48.348;10.980;2022-09-27T14:51:50;4.13;;;0.60;;
14143;SDS011;7152;48.348;10.980;2022-09-27T14:54:18;2.37;;;0.67;;
14143;SDS011;7152;48.348;10.980;2022-09-27T14:56:46;1.93;;;0.90;;
14143;SDS011;7152;48.348;10.980;2022-09-27T14:59:18;2.63;;;0.80;;
14143;SDS011;7152;48.348;10.980;2022-09-27T15:01:54;0.93;;;0.80;;
14143;SDS011;7152;48.348;10.980;2022-09-27T15:04:24;1.70;;;0.70;;
14143;SDS011;7152;48.348;10.980;2022-09-27T15:06:51;1.73;;;1.00;;
14143;SDS011;7152;48.348;10.980;2022-09-27T15:09:17;2.93;;;1.00;;
14143;SDS011;7152;48.348;10.980;2022-09-27T15:11:44;1.10;;;0.80;;
14143;SDS011;7152;48.348;10.980;2022-09-27T15:14:15;3.40;;;1.00;;
14143;SDS011;7152;48.348;10.980;2022-09-27T15:16:44;2.10;;;0.97;;
14143;SDS011;7152;48.348;10.980;2022-09-27T15:19:25;0.93;;;0.80;;
14143;SDS011;7152;48.348;10.980;2022-09-27T15:21:52;1.93;;;1.00;;
14143;SDS011;7152;48.348;10.980;2022-09-27T15:27:13;2.50;;;0.87;;
14143;SDS011;7152;48.348;10.980;2022-09-27T15:29:55;0.70;;;0.67;;
14143;SDS011;7152;48.348;10.980;2022-09-27T15:32:22;15.03;;;10.67;;
14143;SDS011;7152;48.348;10.980;2022-09-27T15:34:50;4.70;;;2.27;;
14143;SDS011;7152;48.348;10.980;2022-09-27T15:37:36;1.03;;;0.57;;
14143;SDS011;7152;48.348;10.980;2022-09-27T15:43:02;0.70;;;0.70;;
14143;SDS011;7152;48.348;10.980;2022-09-27T15:45:28;0.80;;;0.80;;
14143;SDS011;7152;48.348;10.980;2022-09-27T15:48:06;1.07;;;0.70;;
14143;SDS011;7152;48.348;10.980;2022-09-27T15:50:38;0.60;;;0.60;;
14143;SDS011;7152;48.348;10.980;2022-09-27T15:53:05;0.70;;;0.70;;
14143;SDS011;7152;48.348;10.980;2022-09-27T15:55:32;1.43;;;0.70;;
14143;SDS011;7152;48.348;10.980;2022-09-27T15:58:00;0.50;;;0.50;;
14143;SDS011;7152;48.348;10.980;2022-09-27T16:00:27;0.93;;;0.63;;
14143;SDS011;7152;48.348;10.980;2022-09-27T16:02:53;1.17;;;0.70;;
14143;SDS011;7152;48.348;10.980;2022-09-27T16:05:19;0.87;;;0.77;;
14143;SDS011;7152;48.348;10.980;2022-09-27T16:07:48;0.70;;;0.70;;
14143;SDS011;7152;48.348;10.980;2022-09-27T16:10:15;1.43;;;1.10;;
14143;SDS011;7152;48.348;10.980;2022-09-27T16:12:45;8.40;;;6.10;;
14143;SDS011;7152;48.348;10.980;2022-09-27T16:15:12;4.27;;;3.87;;
14143;SDS011;7152;48.348;10.980;2022-09-27T16:17:39;2.33;;;2.00;;
14143;SDS011;7152;48.348;10.980;2022-09-27T16:20:08;5.57;;;5.17;;
14143;SDS011;7152;48.348;10.980;2022-09-27T16:22:45;8.90;;;8.20;;
14143;SDS011;7152;48.348;10.980;2022-09-27T16:25:18;11.10;;;10.00;;
14143;SDS011;7152;48.348;10.980;2022-09-27T16:27:44;5.47;;;4.93;;
14143;SDS011;7152;48.348;10.980;2022-09-27T16:30:10;10.67;;;9.67;;
14143;SDS011;7152;48.348;10.980;2022-09-27T16:32:40;19.23;;;17.57;;
14143;SDS011;7152;48.348;10.980;2022-09-27T16:35:11;7.83;;;7.17;;
14143;SDS011;7152;48.348;10.980;2022-09-27T16:37:39;4.17;;;3.13;;
14143;SDS011;7152;48.348;10.980;2022-09-27T16:40:05;3.70;;;3.17;;
14143;SDS011;7152;48.348;10.980;2022-09-27T16:42:33;3.53;;;3.23;;
14143;SDS011;7152;48.348;10.980;2022-09-27T16:44:59;3.50;;;3.20;;
14143;SDS011;7152;48.348;10.980;2022-09-27T16:47:25;2.60;;;2.30;;
14143;SDS011;7152;48.348;10.980;2022-09-27T16:49:52;1.97;;;1.60;;
14143;SDS011;7152;48.348;10.980;2022-09-27T16:52:36;3.97;;;1.90;;
14143;SDS011;7152;48.348;10.980;2022-09-27T16:55:02;2.27;;;2.07;;
14143;SDS011;7152;48.348;10.980;2022-09-27T16:57:28;2.60;;;1.90;;
14143;SDS011;7152;48.348;10.980;2022-09-27T16:59:54;2.80;;;2.07;;
14143;SDS011;7152;48.348;10.980;2022-09-27T17:02:23;5.13;;;4.83;;
14143;SDS011;7152;48.348;10.980;2022-09-27T17:04:49;3.10;;;2.80;;
14143;SDS011;7152;48.348;10.980;2022-09-27T17:07:15;1.47;;;1.37;;
14143;SDS011;7152;48.348;10.980;2022-09-27T17:09:41;1.83;;;1.73;;
14143;SDS011;7152;48.348;10.980;2022-09-27T17:12:07;1.30;;;1.20;;
14143;SDS011;7152;48.348;10.980;2022-09-27T17:14:32;1.40;;;1.30;;
14143;SDS011;7152;48.348;10.980;2022-09-27T17:16:58;2.00;;;1.70;;
14143;SDS011;7152;48.348;10.980;2022-09-27T17:19:24;2.00;;;1.87;;
14143;SDS011;7152;48.348;10.980;2022-09-27T17:21:49;3.70;;;3.50;;
14143;SDS011;7152;48.348;10.980;2022-09-27T17:24:15;5.57;;;5.17;;
14143;SDS011;7152;48.348;10.980;2022-09-27T17:26:42;3.57;;;3.27;;
14143;SDS011;7152;48.348;10.980;2022-09-27T17:29:09;3.60;;;3.40;;
14143;SDS011;7152;48.348;10.980;2022-09-27T17:31:35;1.80;;;1.30;;
14143;SDS011;7152;48.348;10.980;2022-09-27T17:34:04;1.43;;;1.33;;
14143;SDS011;7152;48.348;10.980;2022-09-27T17:36:31;2.50;;;1.80;;
14143;SDS011;7152;48.348;10.980;2022-09-27T17:38:59;2.20;;;1.50;;
14143;SDS011;7152;48.348;10.980;2022-09-27T17:41:25;2.00;;;1.83;;
14143;SDS011;7152;48.348;10.980;2022-09-27T17:43:54;1.53;;;1.43;;
14143;SDS011;7152;48.348;10.980;2022-09-27T17:46:23;2.30;;;2.10;;
14143;SDS011;7152;48.348;10.980;2022-09-27T17:48:50;3.50;;;2.40;;
14143;SDS011;7152;48.348;10.980;2022-09-27T17:51:38;2.20;;;1.40;;